sensor_id;sensor_type;location;lat;lon;timestamp;temperature;humidity
9365;DHT22;4722;49.340;9.800;2023-05-20T01:39:22;13.20;99.90
9365;DHT22;4722;49.340;9.800;2023-05-20T03:29:08;12.20;99.90
9365;DHT22;4722;49.340;9.800;2023-05-20T05:40:49;17.30;99.90
9365;DHT22;4722;49.340;9.800;2023-05-20T05:43:14;17.40;99.90
9365;DHT22;4722;49.340;9.800;2023-05-20T05:45:40;17.60;99.90
9365;DHT22;4722;49.340;9.800;2023-05-20T07:59:42;20.80;91.40
9365;DHT22;4722;49.340;9.800;2023-05-20T08:02:09;20.80;91.40
9365;DHT22;4722;49.340;9.800;2023-05-20T08:07:01;20.80;92.00
9365;DHT22;4722;49.340;9.800;2023-05-20T08:09:26;20.80;92.00
9365;DHT22;4722;49.340;9.800;2023-05-20T08:11:52;20.70;92.10
9365;DHT22;4722;49.340;9.800;2023-05-20T08:14:17;20.90;91.90
9365;DHT22;4722;49.340;9.800;2023-05-20T08:16:42;20.90;92.80
9365;DHT22;4722;49.340;9.800;2023-05-20T08:19:08;20.90;92.90
9365;DHT22;4722;49.340;9.800;2023-05-20T08:21:34;21.30;92.60
9365;DHT22;4722;49.340;9.800;2023-05-20T08:23:59;21.60;91.10
9365;DHT22;4722;49.340;9.800;2023-05-20T08:26:25;21.80;90.40
9365;DHT22;4722;49.340;9.800;2023-05-20T08:28:51;22.00;90.40
9365;DHT22;4722;49.340;9.800;2023-05-20T08:45:55;24.90;77.70
9365;DHT22;4722;49.340;9.800;2023-05-20T08:48:22;25.90;76.90
9365;DHT22;4722;49.340;9.800;2023-05-20T08:50:51;26.10;67.30
9365;DHT22;4722;49.340;9.800;2023-05-20T08:53:19;26.70;70.60
9365;DHT22;4722;49.340;9.800;2023-05-20T08:55:52;27.40;86.90
9365;DHT22;4722;49.340;9.800;2023-05-20T09:08:07;30.20;58.00
9365;DHT22;4722;49.340;9.800;2023-05-20T09:13:00;30.90;59.00
9365;DHT22;4722;49.340;9.800;2023-05-20T09:37:32;24.20;77.10
9365;DHT22;4722;49.340;9.800;2023-05-20T09:40:02;22.80;77.50
9365;DHT22;4722;49.340;9.800;2023-05-20T09:44:58;22.70;81.70
9365;DHT22;4722;49.340;9.800;2023-05-20T09:47:24;22.80;79.90
9365;DHT22;4722;49.340;9.800;2023-05-20T09:49:51;23.90;79.60
9365;DHT22;4722;49.340;9.800;2023-05-20T09:52:17;23.20;79.70
9365;DHT22;4722;49.340;9.800;2023-05-20T09:54:43;23.90;80.20
9365;DHT22;4722;49.340;9.800;2023-05-20T09:57:08;23.70;79.20
9365;DHT22;4722;49.340;9.800;2023-05-20T09:59:34;22.90;78.50
9365;DHT22;4722;49.340;9.800;2023-05-20T10:02:01;24.20;80.40
9365;DHT22;4722;49.340;9.800;2023-05-20T10:04:26;24.20;79.10
9365;DHT22;4722;49.340;9.800;2023-05-20T10:12:08;24.30;80.50
9365;DHT22;4722;49.340;9.800;2023-05-20T10:20:05;23.90;79.80
9365;DHT22;4722;49.340;9.800;2023-05-20T10:22:33;24.60;79.30
9365;DHT22;4722;49.340;9.800;2023-05-20T10:25:03;24.80;80.10
9365;DHT22;4722;49.340;9.800;2023-05-20T10:27:40;23.80;80.60
9365;DHT22;4722;49.340;9.800;2023-05-20T10:30:13;24.90;80.80
9365;DHT22;4722;49.340;9.800;2023-05-20T10:32:47;23.80;76.40
9365;DHT22;4722;49.340;9.800;2023-05-20T10:35:12;23.60;78.10
9365;DHT22;4722;49.340;9.800;2023-05-20T10:37:41;23.60;79.10
9365;DHT22;4722;49.340;9.800;2023-05-20T10:40:11;23.50;77.50
9365;DHT22;4722;49.340;9.800;2023-05-20T10:42:37;24.40;77.80
9365;DHT22;4722;49.340;9.800;2023-05-20T10:45:03;23.50;79.20
9365;DHT22;4722;49.340;9.800;2023-05-20T10:47:28;23.00;79.20
9365;DHT22;4722;49.340;9.800;2023-05-20T10:49:55;25.60;80.10
9365;DHT22;4722;49.340;9.800;2023-05-20T10:52:20;24.70;79.50
9365;DHT22;4722;49.340;9.800;2023-05-20T10:54:55;23.60;80.40
9365;DHT22;4722;49.340;9.800;2023-05-20T10:57:21;24.70;76.10
9365;DHT22;4722;49.340;9.800;2023-05-20T10:59:48;24.70;75.70
9365;DHT22;4722;49.340;9.800;2023-05-20T11:02:16;24.60;77.80
9365;DHT22;4722;49.340;9.800;2023-05-20T11:04:43;23.40;77.10
9365;DHT22;4722;49.340;9.800;2023-05-20T11:07:08;23.10;77.30
9365;DHT22;4722;49.340;9.800;2023-05-20T11:09:34;24.00;81.50
9365;DHT22;4722;49.340;9.800;2023-05-20T11:12:00;24.10;82.30
9365;DHT22;4722;49.340;9.800;2023-05-20T11:14:28;23.20;81.50
9365;DHT22;4722;49.340;9.800;2023-05-20T11:16:58;24.10;78.60
9365;DHT22;4722;49.340;9.800;2023-05-20T11:19:27;24.30;79.10
9365;DHT22;4722;49.340;9.800;2023-05-20T11:21:52;24.00;79.70
9365;DHT22;4722;49.340;9.800;2023-05-20T11:24:25;23.20;79.70
9365;DHT22;4722;49.340;9.800;2023-05-20T11:26:51;24.00;80.40
9365;DHT22;4722;49.340;9.800;2023-05-20T11:29:17;24.50;79.00
9365;DHT22;4722;49.340;9.800;2023-05-20T11:31:44;24.60;79.80
9365;DHT22;4722;49.340;9.800;2023-05-20T11:34:09;25.00;80.20
9365;DHT22;4722;49.340;9.800;2023-05-20T11:36:39;24.10;79.10
9365;DHT22;4722;49.340;9.800;2023-05-20T11:39:04;24.10;75.50
9365;DHT22;4722;49.340;9.800;2023-05-20T11:41:30;24.70;76.00
9365;DHT22;4722;49.340;9.800;2023-05-20T11:43:59;24.90;76.10
9365;DHT22;4722;49.340;9.800;2023-05-20T11:46:25;24.60;75.90
9365;DHT22;4722;49.340;9.800;2023-05-20T11:48:53;24.80;75.90
9365;DHT22;4722;49.340;9.800;2023-05-20T11:51:23;24.90;77.40
9365;DHT22;4722;49.340;9.800;2023-05-20T11:53:49;23.90;75.80
9365;DHT22;4722;49.340;9.800;2023-05-20T11:56:14;24.70;76.60
9365;DHT22;4722;49.340;9.800;2023-05-20T11:58:42;24.80;79.00
9365;DHT22;4722;49.340;9.800;2023-05-20T12:01:08;24.20;78.70
9365;DHT22;4722;49.340;9.800;2023-05-20T12:03:33;24.90;75.00
9365;DHT22;4722;49.340;9.800;2023-05-20T12:06:01;24.60;75.00
9365;DHT22;4722;49.340;9.800;2023-05-20T12:08:28;23.30;77.10
9365;DHT22;4722;49.340;9.800;2023-05-20T12:10:53;24.50;77.70
9365;DHT22;4722;49.340;9.800;2023-05-20T12:13:19;23.40;77.80
9365;DHT22;4722;49.340;9.800;2023-05-20T12:15:44;23.50;77.90
9365;DHT22;4722;49.340;9.800;2023-05-20T12:18:09;23.40;77.60
9365;DHT22;4722;49.340;9.800;2023-05-20T12:20:35;23.70;77.90
9365;DHT22;4722;49.340;9.800;2023-05-20T12:23:01;23.60;77.50
9365;DHT22;4722;49.340;9.800;2023-05-20T12:25:27;24.60;79.10
9365;DHT22;4722;49.340;9.800;2023-05-20T12:27:53;24.80;78.40
9365;DHT22;4722;49.340;9.800;2023-05-20T12:30:19;23.90;77.80
9365;DHT22;4722;49.340;9.800;2023-05-20T12:32:45;25.20;77.00
9365;DHT22;4722;49.340;9.800;2023-05-20T12:35:11;25.10;76.70
9365;DHT22;4722;49.340;9.800;2023-05-20T12:37:37;25.60;75.80
9365;DHT22;4722;49.340;9.800;2023-05-20T12:40:03;25.40;74.80
9365;DHT22;4722;49.340;9.800;2023-05-20T12:42:36;25.10;75.60
9365;DHT22;4722;49.340;9.800;2023-05-20T12:45:01;24.90;76.80
9365;DHT22;4722;49.340;9.800;2023-05-20T12:47:27;25.20;75.30
9365;DHT22;4722;49.340;9.800;2023-05-20T12:49:53;24.10;74.90
9365;DHT22;4722;49.340;9.800;2023-05-20T12:52:18;25.10;75.00
9365;DHT22;4722;49.340;9.800;2023-05-20T12:54:44;24.20;75.20
9365;DHT22;4722;49.340;9.800;2023-05-20T12:57:09;24.90;75.90
9365;DHT22;4722;49.340;9.800;2023-05-20T12:59:35;24.00;75.80
9365;DHT22;4722;49.340;9.800;2023-05-20T13:02:00;25.20;77.40
9365;DHT22;4722;49.340;9.800;2023-05-20T13:04:26;25.70;73.80
9365;DHT22;4722;49.340;9.800;2023-05-20T13:06:51;25.60;74.00
9365;DHT22;4722;49.340;9.800;2023-05-20T13:09:17;25.70;76.40
9365;DHT22;4722;49.340;9.800;2023-05-20T13:11:42;24.50;74.20
9365;DHT22;4722;49.340;9.800;2023-05-20T13:14:08;25.40;74.70
9365;DHT22;4722;49.340;9.800;2023-05-20T13:16:33;24.30;75.50
9365;DHT22;4722;49.340;9.800;2023-05-20T13:18:58;24.60;76.00
9365;DHT22;4722;49.340;9.800;2023-05-20T13:21:24;25.00;77.00
9365;DHT22;4722;49.340;9.800;2023-05-20T13:23:49;24.90;77.10
9365;DHT22;4722;49.340;9.800;2023-05-20T13:26:15;24.80;78.10
9365;DHT22;4722;49.340;9.800;2023-05-20T13:28:40;24.40;76.00
9365;DHT22;4722;49.340;9.800;2023-05-20T13:31:06;23.80;76.30
9365;DHT22;4722;49.340;9.800;2023-05-20T13:33:31;23.70;77.00
9365;DHT22;4722;49.340;9.800;2023-05-20T13:35:57;24.70;79.00
9365;DHT22;4722;49.340;9.800;2023-05-20T13:38:22;24.00;77.30
9365;DHT22;4722;49.340;9.800;2023-05-20T13:40:48;25.20;79.10
9365;DHT22;4722;49.340;9.800;2023-05-20T13:43:14;24.30;76.50
9365;DHT22;4722;49.340;9.800;2023-05-20T13:45:39;24.40;77.50
9365;DHT22;4722;49.340;9.800;2023-05-20T13:48:05;25.10;73.60
9365;DHT22;4722;49.340;9.800;2023-05-20T13:50:30;24.70;73.20
9365;DHT22;4722;49.340;9.800;2023-05-20T13:52:56;24.80;74.80
9365;DHT22;4722;49.340;9.800;2023-05-20T13:55:21;27.30;77.60
9365;DHT22;4722;49.340;9.800;2023-05-20T13:57:47;24.80;75.90
9365;DHT22;4722;49.340;9.800;2023-05-20T14:00:12;24.70;76.10
9365;DHT22;4722;49.340;9.800;2023-05-20T14:02:38;25.20;76.60
9365;DHT22;4722;49.340;9.800;2023-05-20T14:05:04;25.10;76.70
9365;DHT22;4722;49.340;9.800;2023-05-20T14:07:31;24.90;77.00
9365;DHT22;4722;49.340;9.800;2023-05-20T14:09:56;24.90;77.30
9365;DHT22;4722;49.340;9.800;2023-05-20T14:12:22;24.90;77.70
9365;DHT22;4722;49.340;9.800;2023-05-20T14:14:48;25.00;78.70
9365;DHT22;4722;49.340;9.800;2023-05-20T14:17:14;23.70;77.30
9365;DHT22;4722;49.340;9.800;2023-05-20T14:19:39;25.00;77.90
9365;DHT22;4722;49.340;9.800;2023-05-20T14:22:05;25.10;77.20
9365;DHT22;4722;49.340;9.800;2023-05-20T14:24:30;25.00;77.30
9365;DHT22;4722;49.340;9.800;2023-05-20T14:26:56;25.40;76.50
9365;DHT22;4722;49.340;9.800;2023-05-20T14:29:21;25.40;75.70
9365;DHT22;4722;49.340;9.800;2023-05-20T14:31:47;25.60;74.80
9365;DHT22;4722;49.340;9.800;2023-05-20T14:34:13;25.30;74.80
9365;DHT22;4722;49.340;9.800;2023-05-20T14:36:39;25.40;75.90
9365;DHT22;4722;49.340;9.800;2023-05-20T14:39:05;25.10;76.00
9365;DHT22;4722;49.340;9.800;2023-05-20T14:41:30;25.40;77.80
9365;DHT22;4722;49.340;9.800;2023-05-20T14:43:56;25.50;77.20
9365;DHT22;4722;49.340;9.800;2023-05-20T14:46:21;25.20;76.40
9365;DHT22;4722;49.340;9.800;2023-05-20T14:48:47;25.00;76.40
9365;DHT22;4722;49.340;9.800;2023-05-20T14:51:12;24.10;79.40
9365;DHT22;4722;49.340;9.800;2023-05-20T14:53:38;23.80;77.40
9365;DHT22;4722;49.340;9.800;2023-05-20T14:56:03;24.70;79.20
9365;DHT22;4722;49.340;9.800;2023-05-20T14:58:29;23.30;79.00
9365;DHT22;4722;49.340;9.800;2023-05-20T15:00:54;23.10;79.20
9365;DHT22;4722;49.340;9.800;2023-05-20T15:03:20;23.40;79.90
9365;DHT22;4722;49.340;9.800;2023-05-20T15:05:47;24.00;80.30
9365;DHT22;4722;49.340;9.800;2023-05-20T15:08:13;22.80;80.90
9365;DHT22;4722;49.340;9.800;2023-05-20T15:10:38;23.70;82.70
9365;DHT22;4722;49.340;9.800;2023-05-20T15:13:03;23.00;82.70
9365;DHT22;4722;49.340;9.800;2023-05-20T15:15:29;24.30;80.80
9365;DHT22;4722;49.340;9.800;2023-05-20T15:17:54;23.00;79.80
9365;DHT22;4722;49.340;9.800;2023-05-20T15:20:20;24.20;81.70
9365;DHT22;4722;49.340;9.800;2023-05-20T15:22:46;23.70;80.10
9365;DHT22;4722;49.340;9.800;2023-05-20T15:25:12;24.40;81.50
9365;DHT22;4722;49.340;9.800;2023-05-20T15:27:39;24.40;80.50
9365;DHT22;4722;49.340;9.800;2023-05-20T15:30:05;23.80;79.50
9365;DHT22;4722;49.340;9.800;2023-05-20T15:32:30;24.30;80.60
9365;DHT22;4722;49.340;9.800;2023-05-20T15:34:56;23.40;80.20
9365;DHT22;4722;49.340;9.800;2023-05-20T15:37:21;23.40;79.20
9365;DHT22;4722;49.340;9.800;2023-05-20T15:39:47;24.50;80.30
9365;DHT22;4722;49.340;9.800;2023-05-20T15:42:12;23.70;81.80
9365;DHT22;4722;49.340;9.800;2023-05-20T15:44:42;24.20;81.80
9365;DHT22;4722;49.340;9.800;2023-05-20T15:47:08;24.50;81.60
9365;DHT22;4722;49.340;9.800;2023-05-20T15:49:33;23.20;81.60
9365;DHT22;4722;49.340;9.800;2023-05-20T15:51:59;24.40;82.90
9365;DHT22;4722;49.340;9.800;2023-05-20T15:54:25;23.40;81.60
9365;DHT22;4722;49.340;9.800;2023-05-20T15:56:52;23.20;81.30
9365;DHT22;4722;49.340;9.800;2023-05-20T15:59:17;23.40;81.70
9365;DHT22;4722;49.340;9.800;2023-05-20T16:01:43;23.30;82.80
9365;DHT22;4722;49.340;9.800;2023-05-20T16:04:08;23.40;83.40
9365;DHT22;4722;49.340;9.800;2023-05-20T16:06:33;22.70;83.40
9365;DHT22;4722;49.340;9.800;2023-05-20T16:09:00;22.50;84.10
9365;DHT22;4722;49.340;9.800;2023-05-20T16:11:26;23.30;85.50
9365;DHT22;4722;49.340;9.800;2023-05-20T16:13:52;23.50;85.90
9365;DHT22;4722;49.340;9.800;2023-05-20T16:16:18;22.40;84.70
9365;DHT22;4722;49.340;9.800;2023-05-20T16:18:44;23.30;86.10
9365;DHT22;4722;49.340;9.800;2023-05-20T16:21:09;22.20;85.50
9365;DHT22;4722;49.340;9.800;2023-05-20T16:23:35;22.30;86.70
9365;DHT22;4722;49.340;9.800;2023-05-20T16:26:00;22.30;86.30
9365;DHT22;4722;49.340;9.800;2023-05-20T16:30:53;23.50;86.80
9365;DHT22;4722;49.340;9.800;2023-05-20T16:33:19;22.90;86.10
9365;DHT22;4722;49.340;9.800;2023-05-20T16:35:44;23.30;87.70
9365;DHT22;4722;49.340;9.800;2023-05-20T16:38:10;22.10;86.60
9365;DHT22;4722;49.340;9.800;2023-05-20T16:40:35;22.30;87.40
9365;DHT22;4722;49.340;9.800;2023-05-20T16:43:01;22.10;88.80
9365;DHT22;4722;49.340;9.800;2023-05-20T16:45:26;22.00;89.20
9365;DHT22;4722;49.340;9.800;2023-05-20T16:47:52;22.10;89.70
9365;DHT22;4722;49.340;9.800;2023-05-20T16:52:43;22.00;88.90
9365;DHT22;4722;49.340;9.800;2023-05-20T16:55:09;22.00;89.00
9365;DHT22;4722;49.340;9.800;2023-05-20T16:57:34;23.10;89.80
9365;DHT22;4722;49.340;9.800;2023-05-20T17:00:00;21.90;89.00
9365;DHT22;4722;49.340;9.800;2023-05-20T17:02:26;21.80;89.50
9365;DHT22;4722;49.340;9.800;2023-05-20T17:04:51;21.90;89.80
9365;DHT22;4722;49.340;9.800;2023-05-20T17:07:17;21.70;89.60
9365;DHT22;4722;49.340;9.800;2023-05-20T17:09:42;22.30;90.10
9365;DHT22;4722;49.340;9.800;2023-05-20T17:12:08;22.10;90.20
9365;DHT22;4722;49.340;9.800;2023-05-20T17:14:33;19.30;89.20
9365;DHT22;4722;49.340;9.800;2023-05-20T17:19:25;21.80;90.30
9365;DHT22;4722;49.340;9.800;2023-05-20T17:24:16;21.90;90.10
9365;DHT22;4722;49.340;9.800;2023-05-20T17:26:41;21.40;90.60
9365;DHT22;4722;49.340;9.800;2023-05-20T17:29:07;21.80;90.80
9365;DHT22;4722;49.340;9.800;2023-05-20T17:31:32;22.70;91.40
9365;DHT22;4722;49.340;9.800;2023-05-20T17:33:58;21.60;90.80
9365;DHT22;4722;49.340;9.800;2023-05-20T17:36:23;21.80;91.30
9365;DHT22;4722;49.340;9.800;2023-05-20T17:38:49;21.70;91.20
9365;DHT22;4722;49.340;9.800;2023-05-20T17:43:46;21.60;91.70
9365;DHT22;4722;49.340;9.800;2023-05-20T17:46:11;21.60;92.30
9365;DHT22;4722;49.340;9.800;2023-05-20T17:48:37;21.90;92.50
9365;DHT22;4722;49.340;9.800;2023-05-20T17:51:02;21.50;92.70
9365;DHT22;4722;49.340;9.800;2023-05-20T17:53:28;21.50;92.70
9365;DHT22;4722;49.340;9.800;2023-05-20T17:55:53;21.40;92.70
9365;DHT22;4722;49.340;9.800;2023-05-20T17:58:19;21.30;93.10
9365;DHT22;4722;49.340;9.800;2023-05-20T18:00:51;21.40;93.20
9365;DHT22;4722;49.340;9.800;2023-05-20T18:05:43;21.60;93.60
9365;DHT22;4722;49.340;9.800;2023-05-20T18:10:34;21.00;94.20
9365;DHT22;4722;49.340;9.800;2023-05-20T18:17:51;20.90;95.20
9365;DHT22;4722;49.340;9.800;2023-05-20T18:20:17;20.70;95.30
9365;DHT22;4722;49.340;9.800;2023-05-20T18:22:43;20.60;95.20
9365;DHT22;4722;49.340;9.800;2023-05-20T18:25:12;20.10;95.20
9365;DHT22;4722;49.340;9.800;2023-05-20T18:42:14;19.70;97.20
9365;DHT22;4722;49.340;9.800;2023-05-20T18:44:41;19.80;97.60
9365;DHT22;4722;49.340;9.800;2023-05-20T18:47:07;18.80;97.80
9365;DHT22;4722;49.340;9.800;2023-05-20T18:54:25;19.90;98.30
9365;DHT22;4722;49.340;9.800;2023-05-20T18:56:50;18.70;98.60
9365;DHT22;4722;49.340;9.800;2023-05-20T18:59:16;19.70;99.10
9365;DHT22;4722;49.340;9.800;2023-05-20T19:06:34;19.30;99.90
9365;DHT22;4722;49.340;9.800;2023-05-20T19:09:02;19.50;99.90
9365;DHT22;4722;49.340;9.800;2023-05-20T19:11:28;18.50;99.90
9365;DHT22;4722;49.340;9.800;2023-05-20T19:13:53;18.40;99.90
9365;DHT22;4722;49.340;9.800;2023-05-20T19:18:45;19.30;99.90
9365;DHT22;4722;49.340;9.800;2023-05-20T19:21:10;18.20;99.90
9365;DHT22;4722;49.340;9.800;2023-05-20T19:26:02;18.10;99.90
9365;DHT22;4722;49.340;9.800;2023-05-20T19:28:27;18.70;99.90
9365;DHT22;4722;49.340;9.800;2023-05-20T19:30:53;18.00;99.90
9365;DHT22;4722;49.340;9.800;2023-05-20T19:33:19;18.30;99.90
9365;DHT22;4722;49.340;9.800;2023-05-20T19:35:45;18.00;99.90
9365;DHT22;4722;49.340;9.800;2023-05-20T19:38:10;17.90;99.90
9365;DHT22;4722;49.340;9.800;2023-05-20T19:45:28;17.80;99.90
9365;DHT22;4722;49.340;9.800;2023-05-20T19:47:54;17.70;99.90
9365;DHT22;4722;49.340;9.800;2023-05-20T19:52:46;17.60;99.90
9365;DHT22;4722;49.340;9.800;2023-05-20T19:55:11;17.70;99.90
9365;DHT22;4722;49.340;9.800;2023-05-20T20:00:03;17.60;99.90
9365;DHT22;4722;49.340;9.800;2023-05-20T20:02:31;17.50;99.90
9365;DHT22;4722;49.340;9.800;2023-05-20T20:09:50;17.60;99.90
9365;DHT22;4722;49.340;9.800;2023-05-20T20:12:19;17.50;99.90
9365;DHT22;4722;49.340;9.800;2023-05-20T20:14:45;17.60;99.90
9365;DHT22;4722;49.340;9.800;2023-05-20T20:17:10;18.40;99.90
9365;DHT22;4722;49.340;9.800;2023-05-20T20:19:39;17.40;99.90
9365;DHT22;4722;49.340;9.800;2023-05-20T20:29:25;17.50;99.90
9365;DHT22;4722;49.340;9.800;2023-05-20T20:31:51;17.30;99.90
9365;DHT22;4722;49.340;9.800;2023-05-20T20:39:10;17.40;99.90
9365;DHT22;4722;49.340;9.800;2023-05-20T20:41:46;17.50;99.90
9365;DHT22;4722;49.340;9.800;2023-05-20T20:46:45;17.40;99.90
9365;DHT22;4722;49.340;9.800;2023-05-20T20:54:06;17.30;99.90
9365;DHT22;4722;49.340;9.800;2023-05-20T20:59:04;17.50;99.90
9365;DHT22;4722;49.340;9.800;2023-05-20T21:03:55;17.40;99.90
9365;DHT22;4722;49.340;9.800;2023-05-20T21:13:41;17.30;99.90
9365;DHT22;4722;49.340;9.800;2023-05-20T21:16:07;17.10;99.90
9365;DHT22;4722;49.340;9.800;2023-05-20T21:20:59;17.30;99.90
9365;DHT22;4722;49.340;9.800;2023-05-20T21:23:25;17.30;99.90
9365;DHT22;4722;49.340;9.800;2023-05-20T21:35:35;17.10;99.90
9365;DHT22;4722;49.340;9.800;2023-05-20T21:55:04;17.00;99.90
9365;DHT22;4722;49.340;9.800;2023-05-20T22:02:22;16.90;99.90
9365;DHT22;4722;49.340;9.800;2023-05-20T22:04:47;17.00;99.90
9365;DHT22;4722;49.340;9.800;2023-05-20T22:07:13;16.80;99.90
9365;DHT22;4722;49.340;9.800;2023-05-20T22:12:04;16.80;99.90
9365;DHT22;4722;49.340;9.800;2023-05-20T22:14:30;16.80;99.90
9365;DHT22;4722;49.340;9.800;2023-05-20T22:16:55;15.90;99.90
